Lake Clark National Park, AK

11:38 PM AKDT on May 22, 2015 (GMT -0800)
RAWS | | Change Station
CLOSE
Current Station
Personal Weather Station
Location: Port Alsworth, AK
Elevation: 2314 ft
Nearby Weather Stations

Elev 2314 ft 60.61 °N, 154.32 °W | Updated 34 minutes ago

Overcast
Overcast
53 °F
Feels Like 53 °F
N
30
Wind Variable Wind from ESE
Gusts 37.0 mph

Today
High -- | Low -- °F
--% Chance of Precip.
Yesterday
High -- | Low -- °F
Precip. -- in
5:22 AM 11:09 PM
Waxing Crescent, 28% visible
Pressure 29.86 in
Visibility 10.0 miles
Clouds Overcast 6000 ft
Dew Point 33 °F
Humidity 47%
Rainfall in
Snow Depth Not available.
UV 0 out of 12
Pollen Not available.
Air Quality Not available.
Flu Activity Local Activity
METAR PASV 230655Z AUTO 07007KT 10SM -RA OVC060 11/07 A2987 RMK AO2 RAB0555 SLP112 P0002 T01050067

More Conditions Fewer Conditions

Pressure 29.86 in
Visibility 10.0 miles
Clouds Overcast 6000 ft
Dew Point 33 °F
Humidity 47%
Rainfall in
Snow Depth Not available.
UV 0 out of 12
Pollen Not available.
Air Quality Not available.
Flu Activity Local Activity
METAR PASV 230655Z AUTO 07007KT 10SM -RA OVC060 11/07 A2987 RMK AO2 RAB0555 SLP112 P0002 T01050067

More Conditions Fewer Conditions

10-Day Weather Forecast

Almanac

Astronomy

May. 22, 2015 Rise Set
Actual Time
Civil Twilight
Nautical Twilight
Astronomical Twilight
Moon
Length of Visible Light
Length of Day
Tomorrow will be .
, % of the Moon is Illuminated

Today's Extremes

State Highs State Lows

Community

WunderPhotos

Upload Photos

1,823,400 photos uploaded!

WunderBlogs® & News

Nearby

Air Quality

  Air Quality AQ Index Pollutant
Not available.

Snow Depth

Station Depth Elevation

Earthquake Activity

City Distance Mag. Time & Date
Minimum magnitude displayed is 2.5.

Coastal Water Temperatures

Place Temperature

Stations

Nearby Weather Stations

Station Location Temp. Windchill Dew Point Humidity Wind Precip. Elev Updated Type